VTK605 UMMG-UMGG
Flight info
| Callsign | VTK605 |
|---|---|
| Flight time | 1h 16m |
| Altitude | 19000 |
| Route | KOMEN L32 BABUN T535 DOZAL |
| Aircraft | C414/L-SBDFGRY/S |
Departure
| Time | 2026-05-07 10:41 |
|---|---|
| Airport | Hrodna Airport (UMMG) |
Arrival
| Time | 2026-05-07 11:58 |
|---|---|
| Airport | Gomel Airport (UMGG) |
| Time | Latitude | Longitude | Altitude | Speed | Heading |
|---|---|---|---|---|---|
| 2026-05-07 10:28 | 53.60197 | 24.04819 | 418 ft | 0 kts | 271° |
| 2026-05-07 10:37 | 53.60212 | 24.04769 | 413 ft | 9 kts | 6° |
| 2026-05-07 10:37 | 53.60258 | 24.04844 | 413 ft | 10 kts | 47° |
| 2026-05-07 10:37 | 53.60325 | 24.04870 | 415 ft | 11 kts | 359° |
| 2026-05-07 10:37 | 53.60416 | 24.04864 | 418 ft | 15 kts | 357° |
| 2026-05-07 10:38 | 53.60533 | 24.04869 | 416 ft | 18 kts | 356° |
| 2026-05-07 10:38 | 53.60593 | 24.04995 | 414 ft | 16 kts | 84° |
| 2026-05-07 10:38 | 53.60599 | 24.05174 | 418 ft | 16 kts | 90° |
| 2026-05-07 10:38 | 53.60557 | 24.05350 | 419 ft | 19 kts | 164° |
| 2026-05-07 10:39 | 53.60404 | 24.05366 | 413 ft | 25 kts | 178° |
| 2026-05-07 10:39 | 53.60217 | 24.05377 | 418 ft | 29 kts | 178° |
| 2026-05-07 10:39 | 53.60008 | 24.05389 | 415 ft | 29 kts | 179° |
| 2026-05-07 10:39 | 53.59882 | 24.05396 | 415 ft | 3 kts | 1° |
| 2026-05-07 10:40 | 53.59892 | 24.05397 | 417 ft | 6 kts | 358° |
| 2026-05-07 10:40 | 53.60107 | 24.05379 | 413 ft | 56 kts | 358° |
| 2026-05-07 10:40 | 53.60638 | 24.05349 | 414 ft | 94 kts | 357° |
| 2026-05-07 10:40 | 53.61342 | 24.05282 | 529 ft | 106 kts | 351° |
| 2026-05-07 10:41 | 53.62111 | 24.05162 | 683 ft | 115 kts | 358° |
| 2026-05-07 10:41 | 53.62920 | 24.05164 | 867 ft | 118 kts | 355° |
| 2026-05-07 10:41 | 53.63757 | 24.05129 | 1049 ft | 123 kts | 355° |
| 2026-05-07 10:41 | 53.64653 | 24.05276 | 1225 ft | 140 kts | 20° |
| 2026-05-07 10:42 | 53.65273 | 24.06565 | 1408 ft | 152 kts | 74° |
| 2026-05-07 10:42 | 53.65152 | 24.08386 | 1389 ft | 165 kts | 126° |
| 2026-05-07 10:42 | 53.64299 | 24.09682 | 1421 ft | 169 kts | 153° |
| 2026-05-07 10:42 | 53.63319 | 24.10786 | 1617 ft | 170 kts | 153° |
| 2026-05-07 10:43 | 53.62361 | 24.11983 | 1809 ft | 173 kts | 150° |
| 2026-05-07 10:43 | 53.61411 | 24.13240 | 2019 ft | 173 kts | 148° |
| 2026-05-07 10:43 | 53.60464 | 24.14481 | 2236 ft | 173 kts | 150° |
| 2026-05-07 10:43 | 53.59512 | 24.15726 | 2458 ft | 172 kts | 148° |
| 2026-05-07 10:44 | 53.58567 | 24.16969 | 2683 ft | 173 kts | 150° |
| 2026-05-07 10:44 | 53.57625 | 24.18205 | 2954 ft | 171 kts | 148° |
| 2026-05-07 10:44 | 53.56771 | 24.19618 | 3177 ft | 178 kts | 126° |
| 2026-05-07 10:44 | 53.56277 | 24.21568 | 3398 ft | 182 kts | 114° |
| 2026-05-07 10:45 | 53.55824 | 24.23529 | 3664 ft | 179 kts | 117° |
| 2026-05-07 10:45 | 53.55362 | 24.25485 | 3850 ft | 181 kts | 117° |
| 2026-05-07 10:45 | 53.54903 | 24.27467 | 4076 ft | 182 kts | 118° |
| 2026-05-07 10:45 | 53.54443 | 24.29435 | 4360 ft | 180 kts | 119° |
| 2026-05-07 10:46 | 53.53990 | 24.31392 | 4603 ft | 180 kts | 118° |
| 2026-05-07 10:46 | 53.53531 | 24.33348 | 4809 ft | 180 kts | 118° |
| 2026-05-07 10:46 | 53.53071 | 24.35309 | 5047 ft | 181 kts | 118° |
| 2026-05-07 10:46 | 53.52611 | 24.37284 | 5277 ft | 182 kts | 118° |
| 2026-05-07 10:47 | 53.52147 | 24.39264 | 5534 ft | 182 kts | 118° |
| 2026-05-07 10:47 | 53.51684 | 24.41241 | 5782 ft | 182 kts | 119° |
| 2026-05-07 10:47 | 53.51217 | 24.43230 | 6004 ft | 183 kts | 120° |
| 2026-05-07 10:47 | 53.50752 | 24.45214 | 6241 ft | 183 kts | 120° |
| 2026-05-07 10:48 | 53.50282 | 24.47204 | 6446 ft | 184 kts | 120° |
| 2026-05-07 10:48 | 53.49809 | 24.49216 | 6628 ft | 186 kts | 120° |
| 2026-05-07 10:48 | 53.49330 | 24.51242 | 6843 ft | 187 kts | 120° |
| 2026-05-07 10:48 | 53.48858 | 24.53252 | 7059 ft | 187 kts | 120° |
| 2026-05-07 10:49 | 53.48378 | 24.55290 | 7283 ft | 188 kts | 120° |
| 2026-05-07 10:49 | 53.47894 | 24.57337 | 7504 ft | 188 kts | 120° |
| 2026-05-07 10:49 | 53.47409 | 24.59390 | 7725 ft | 189 kts | 120° |
| 2026-05-07 10:49 | 53.46916 | 24.61473 | 7955 ft | 190 kts | 120° |
| 2026-05-07 10:50 | 53.46433 | 24.63508 | 8172 ft | 191 kts | 121° |
| 2026-05-07 10:50 | 53.45939 | 24.65585 | 8386 ft | 192 kts | 121° |
| 2026-05-07 10:50 | 53.45446 | 24.67670 | 8618 ft | 192 kts | 121° |
| 2026-05-07 10:50 | 53.44951 | 24.69760 | 8829 ft | 193 kts | 121° |
| 2026-05-07 10:51 | 53.44452 | 24.71854 | 9051 ft | 194 kts | 121° |
| 2026-05-07 10:51 | 53.43953 | 24.73952 | 9274 ft | 194 kts | 121° |
| 2026-05-07 10:51 | 53.43452 | 24.76046 | 9494 ft | 193 kts | 121° |
| 2026-05-07 10:51 | 53.42952 | 24.78149 | 9703 ft | 195 kts | 121° |
| 2026-05-07 10:52 | 53.42448 | 24.80257 | 9888 ft | 195 kts | 121° |
| 2026-05-07 10:52 | 53.41941 | 24.82380 | 10066 ft | 196 kts | 121° |
| 2026-05-07 10:52 | 53.41434 | 24.84509 | 10252 ft | 197 kts | 121° |
| 2026-05-07 10:52 | 53.40928 | 24.86613 | 10447 ft | 198 kts | 121° |
| 2026-05-07 10:53 | 53.40415 | 24.88753 | 10627 ft | 198 kts | 121° |
| 2026-05-07 10:53 | 53.39900 | 24.90906 | 10826 ft | 199 kts | 121° |
| 2026-05-07 10:53 | 53.39383 | 24.93058 | 11029 ft | 200 kts | 121° |
| 2026-05-07 10:53 | 53.38858 | 24.95241 | 11200 ft | 200 kts | 121° |
| 2026-05-07 10:54 | 53.38344 | 24.97378 | 11384 ft | 201 kts | 121° |
| 2026-05-07 10:54 | 53.37822 | 24.99547 | 11591 ft | 201 kts | 121° |
| 2026-05-07 10:54 | 53.37242 | 25.01659 | 11776 ft | 199 kts | 127° |
| 2026-05-07 10:54 | 53.36628 | 25.03741 | 11960 ft | 200 kts | 125° |
| 2026-05-07 10:55 | 53.36020 | 25.05838 | 12134 ft | 201 kts | 126° |
| 2026-05-07 10:55 | 53.35399 | 25.07938 | 12320 ft | 201 kts | 126° |
| 2026-05-07 10:55 | 53.34779 | 25.10052 | 12511 ft | 202 kts | 126° |
| 2026-05-07 10:55 | 53.34161 | 25.12162 | 12688 ft | 203 kts | 126° |
| 2026-05-07 10:56 | 53.33538 | 25.14282 | 12876 ft | 203 kts | 126° |
| 2026-05-07 10:56 | 53.32914 | 25.16407 | 13056 ft | 204 kts | 126° |
| 2026-05-07 10:56 | 53.32288 | 25.18530 | 13246 ft | 204 kts | 126° |
| 2026-05-07 10:56 | 53.31658 | 25.20664 | 13434 ft | 205 kts | 126° |
| 2026-05-07 10:57 | 53.31026 | 25.22805 | 13624 ft | 206 kts | 126° |
| 2026-05-07 10:57 | 53.30390 | 25.24955 | 13792 ft | 206 kts | 126° |
| 2026-05-07 10:57 | 53.29755 | 25.27105 | 13942 ft | 207 kts | 126° |
| 2026-05-07 10:57 | 53.29117 | 25.29265 | 14097 ft | 208 kts | 126° |
| 2026-05-07 10:58 | 53.28475 | 25.31430 | 14252 ft | 208 kts | 126° |
| 2026-05-07 10:58 | 53.27832 | 25.33600 | 14406 ft | 209 kts | 126° |
| 2026-05-07 10:58 | 53.27185 | 25.35781 | 14563 ft | 209 kts | 126° |
| 2026-05-07 10:58 | 53.26539 | 25.37955 | 14715 ft | 210 kts | 126° |
| 2026-05-07 10:59 | 53.26108 | 25.39405 | 14793 ft | 210 kts | 125° |
| 2026-05-07 10:59 | 53.25457 | 25.41594 | 14960 ft | 211 kts | 125° |
| 2026-05-07 10:59 | 53.24804 | 25.43788 | 15118 ft | 211 kts | 125° |
| 2026-05-07 10:59 | 53.24148 | 25.45990 | 15277 ft | 212 kts | 125° |
| 2026-05-07 11:00 | 53.23491 | 25.48191 | 15437 ft | 212 kts | 125° |
| 2026-05-07 11:00 | 53.22831 | 25.50401 | 15593 ft | 213 kts | 125° |
| 2026-05-07 11:00 | 53.22170 | 25.52615 | 15746 ft | 214 kts | 125° |
| 2026-05-07 11:00 | 53.21503 | 25.54841 | 15896 ft | 214 kts | 126° |
| 2026-05-07 11:01 | 53.20838 | 25.57065 | 16058 ft | 215 kts | 125° |
| 2026-05-07 11:01 | 53.20169 | 25.59300 | 16223 ft | 215 kts | 125° |
| 2026-05-07 11:01 | 53.19497 | 25.61538 | 16382 ft | 216 kts | 125° |
| 2026-05-07 11:01 | 53.18825 | 25.63781 | 16539 ft | 217 kts | 125° |
| 2026-05-07 11:02 | 53.18147 | 25.66034 | 16706 ft | 217 kts | 125° |
| 2026-05-07 11:02 | 53.17469 | 25.68287 | 16863 ft | 218 kts | 125° |
| 2026-05-07 11:02 | 53.16788 | 25.70551 | 17014 ft | 218 kts | 125° |
| 2026-05-07 11:02 | 53.16106 | 25.72812 | 17170 ft | 219 kts | 125° |
| 2026-05-07 11:03 | 53.15421 | 25.75087 | 17327 ft | 220 kts | 125° |
| 2026-05-07 11:03 | 53.14735 | 25.77361 | 17473 ft | 220 kts | 125° |
| 2026-05-07 11:03 | 53.14043 | 25.79648 | 17627 ft | 221 kts | 125° |
| 2026-05-07 11:03 | 53.13351 | 25.81936 | 17784 ft | 221 kts | 125° |
| 2026-05-07 11:04 | 53.12657 | 25.84230 | 17911 ft | 222 kts | 125° |
| 2026-05-07 11:04 | 53.11962 | 25.86522 | 18061 ft | 223 kts | 125° |
| 2026-05-07 11:04 | 53.11261 | 25.88836 | 18206 ft | 223 kts | 125° |
| 2026-05-07 11:04 | 53.10560 | 25.91144 | 18339 ft | 224 kts | 125° |
| 2026-05-07 11:05 | 53.09854 | 25.93459 | 18462 ft | 224 kts | 125° |
| 2026-05-07 11:05 | 53.09149 | 25.95783 | 18583 ft | 226 kts | 125° |
| 2026-05-07 11:05 | 53.08446 | 25.98113 | 18732 ft | 225 kts | 125° |
| 2026-05-07 11:05 | 53.07734 | 26.00435 | 18857 ft | 226 kts | 126° |
| 2026-05-07 11:06 | 53.07013 | 26.02777 | 18858 ft | 229 kts | 125° |
| 2026-05-07 11:06 | 53.06287 | 26.05157 | 18861 ft | 232 kts | 125° |
| 2026-05-07 11:06 | 53.05554 | 26.07563 | 18864 ft | 234 kts | 125° |
| 2026-05-07 11:06 | 53.04816 | 26.09977 | 18868 ft | 235 kts | 125° |
| 2026-05-07 11:07 | 53.04072 | 26.12405 | 18870 ft | 236 kts | 125° |
| 2026-05-07 11:07 | 53.03326 | 26.14837 | 18871 ft | 237 kts | 125° |
| 2026-05-07 11:07 | 53.02577 | 26.17279 | 18872 ft | 237 kts | 125° |
| 2026-05-07 11:07 | 53.01825 | 26.19725 | 18873 ft | 237 kts | 125° |
| 2026-05-07 11:08 | 53.01439 | 26.20982 | 18875 ft | 237 kts | 125° |
| 2026-05-07 11:08 | 53.01149 | 26.21925 | 18873 ft | 238 kts | 125° |
| 2026-05-07 11:08 | 53.00396 | 26.24371 | 18868 ft | 238 kts | 124° |
| 2026-05-07 11:09 | 52.99642 | 26.26818 | 18857 ft | 238 kts | 124° |
| 2026-05-07 11:09 | 52.98896 | 26.29237 | 18857 ft | 238 kts | 124° |
| 2026-05-07 11:09 | 52.98141 | 26.31680 | 18859 ft | 238 kts | 124° |
| 2026-05-07 11:09 | 52.97384 | 26.34133 | 18860 ft | 239 kts | 124° |
| 2026-05-07 11:10 | 52.96627 | 26.36581 | 18856 ft | 238 kts | 125° |
| 2026-05-07 11:10 | 52.95869 | 26.39025 | 18856 ft | 238 kts | 125° |
| 2026-05-07 11:10 | 52.95113 | 26.41462 | 18855 ft | 238 kts | 125° |
| 2026-05-07 11:10 | 52.94353 | 26.43897 | 18858 ft | 237 kts | 125° |
| 2026-05-07 11:11 | 52.93591 | 26.46327 | 18861 ft | 238 kts | 125° |
| 2026-05-07 11:11 | 52.92827 | 26.48767 | 18861 ft | 238 kts | 125° |
| 2026-05-07 11:11 | 52.92064 | 26.51205 | 18862 ft | 238 kts | 125° |
| 2026-05-07 11:11 | 52.91302 | 26.53637 | 18861 ft | 238 kts | 125° |
| 2026-05-07 11:12 | 52.90536 | 26.56076 | 18861 ft | 238 kts | 125° |
| 2026-05-07 11:12 | 52.89774 | 26.58503 | 18862 ft | 238 kts | 125° |
| 2026-05-07 11:12 | 52.89009 | 26.60935 | 18866 ft | 238 kts | 125° |
| 2026-05-07 11:12 | 52.88245 | 26.63360 | 18866 ft | 238 kts | 125° |
| 2026-05-07 11:13 | 52.87487 | 26.65764 | 18868 ft | 239 kts | 125° |
| 2026-05-07 11:13 | 52.86717 | 26.68209 | 18849 ft | 240 kts | 125° |
| 2026-05-07 11:13 | 52.85944 | 26.70659 | 18866 ft | 240 kts | 125° |
| 2026-05-07 11:13 | 52.85169 | 26.73109 | 18867 ft | 241 kts | 125° |
| 2026-05-07 11:14 | 52.84391 | 26.75568 | 18866 ft | 242 kts | 125° |
| 2026-05-07 11:14 | 52.83611 | 26.78033 | 18865 ft | 242 kts | 125° |
| 2026-05-07 11:14 | 52.82828 | 26.80503 | 18868 ft | 242 kts | 125° |
| 2026-05-07 11:14 | 52.82045 | 26.82971 | 18867 ft | 242 kts | 125° |
| 2026-05-07 11:15 | 52.81261 | 26.85438 | 18866 ft | 242 kts | 125° |
| 2026-05-07 11:15 | 52.80478 | 26.87901 | 18867 ft | 242 kts | 125° |
| 2026-05-07 11:15 | 52.79693 | 26.90368 | 18868 ft | 243 kts | 125° |
| 2026-05-07 11:15 | 52.78907 | 26.92836 | 18868 ft | 242 kts | 125° |
| 2026-05-07 11:16 | 52.78122 | 26.95295 | 18874 ft | 242 kts | 125° |
| 2026-05-07 11:16 | 52.77338 | 26.97755 | 18874 ft | 242 kts | 125° |
| 2026-05-07 11:16 | 52.76551 | 27.00215 | 18874 ft | 242 kts | 125° |
| 2026-05-07 11:16 | 52.75762 | 27.02678 | 18875 ft | 243 kts | 125° |
| 2026-05-07 11:17 | 52.74975 | 27.05137 | 18874 ft | 242 kts | 125° |
| 2026-05-07 11:17 | 52.74187 | 27.07599 | 18874 ft | 243 kts | 125° |
| 2026-05-07 11:17 | 52.73395 | 27.10065 | 18874 ft | 243 kts | 125° |
| 2026-05-07 11:17 | 52.72606 | 27.12523 | 18872 ft | 242 kts | 125° |
| 2026-05-07 11:18 | 52.71815 | 27.14985 | 18870 ft | 243 kts | 125° |
| 2026-05-07 11:18 | 52.71023 | 27.17445 | 18869 ft | 243 kts | 125° |
| 2026-05-07 11:18 | 52.70229 | 27.19908 | 18870 ft | 243 kts | 125° |
| 2026-05-07 11:18 | 52.69434 | 27.22372 | 18870 ft | 243 kts | 125° |
| 2026-05-07 11:19 | 52.68641 | 27.24835 | 18876 ft | 243 kts | 125° |
| 2026-05-07 11:19 | 52.67856 | 27.27280 | 18875 ft | 245 kts | 125° |
| 2026-05-07 11:19 | 52.67067 | 27.29760 | 18876 ft | 245 kts | 124° |
| 2026-05-07 11:19 | 52.66274 | 27.32249 | 18878 ft | 244 kts | 125° |
| 2026-05-07 11:20 | 52.65478 | 27.34727 | 18878 ft | 244 kts | 125° |
| 2026-05-07 11:20 | 52.64683 | 27.37208 | 18876 ft | 244 kts | 125° |
| 2026-05-07 11:20 | 52.63890 | 27.39678 | 18877 ft | 244 kts | 125° |
| 2026-05-07 11:20 | 52.63095 | 27.42149 | 18876 ft | 244 kts | 125° |
| 2026-05-07 11:21 | 52.62300 | 27.44620 | 18880 ft | 244 kts | 125° |
| 2026-05-07 11:21 | 52.61506 | 27.47089 | 18881 ft | 244 kts | 125° |
| 2026-05-07 11:21 | 52.60711 | 27.49556 | 18882 ft | 244 kts | 125° |
| 2026-05-07 11:21 | 52.59915 | 27.52022 | 18883 ft | 244 kts | 125° |
| 2026-05-07 11:22 | 52.59119 | 27.54485 | 18878 ft | 244 kts | 124° |
| 2026-05-07 11:22 | 52.58324 | 27.56945 | 18877 ft | 243 kts | 124° |
| 2026-05-07 11:22 | 52.57528 | 27.59404 | 18878 ft | 243 kts | 124° |
| 2026-05-07 11:22 | 52.56733 | 27.61858 | 18881 ft | 243 kts | 124° |
| 2026-05-07 11:23 | 52.55938 | 27.64308 | 18882 ft | 243 kts | 124° |
| 2026-05-07 11:23 | 52.55142 | 27.66760 | 18881 ft | 243 kts | 124° |
| 2026-05-07 11:23 | 52.54345 | 27.69211 | 18880 ft | 243 kts | 124° |
| 2026-05-07 11:23 | 52.53548 | 27.71662 | 18881 ft | 243 kts | 124° |
| 2026-05-07 11:24 | 52.52752 | 27.74109 | 18880 ft | 243 kts | 124° |
| 2026-05-07 11:24 | 52.51954 | 27.76556 | 18879 ft | 243 kts | 124° |
| 2026-05-07 11:24 | 52.51157 | 27.79002 | 18879 ft | 243 kts | 124° |
| 2026-05-07 11:24 | 52.50468 | 27.81111 | 18878 ft | 243 kts | 125° |
| 2026-05-07 11:25 | 52.49679 | 27.83521 | 18881 ft | 243 kts | 124° |
| 2026-05-07 11:25 | 52.48881 | 27.85960 | 18881 ft | 243 kts | 124° |
| 2026-05-07 11:25 | 52.48080 | 27.88410 | 18881 ft | 243 kts | 124° |
| 2026-05-07 11:25 | 52.47280 | 27.90849 | 18881 ft | 243 kts | 124° |
| 2026-05-07 11:26 | 52.46479 | 27.93290 | 18880 ft | 243 kts | 125° |
| 2026-05-07 11:26 | 52.45678 | 27.95727 | 18883 ft | 243 kts | 124° |
| 2026-05-07 11:26 | 52.44878 | 27.98161 | 18883 ft | 243 kts | 124° |
| 2026-05-07 11:26 | 52.44077 | 28.00597 | 18881 ft | 242 kts | 124° |
| 2026-05-07 11:27 | 52.43277 | 28.03025 | 18878 ft | 242 kts | 124° |
| 2026-05-07 11:27 | 52.42475 | 28.05456 | 18882 ft | 242 kts | 124° |
| 2026-05-07 11:27 | 52.41674 | 28.07882 | 18880 ft | 242 kts | 124° |
| 2026-05-07 11:27 | 52.40873 | 28.10308 | 18879 ft | 242 kts | 124° |
| 2026-05-07 11:28 | 52.40069 | 28.12736 | 18888 ft | 242 kts | 124° |
| 2026-05-07 11:28 | 52.39265 | 28.15164 | 18885 ft | 243 kts | 124° |
| 2026-05-07 11:28 | 52.38459 | 28.17597 | 18887 ft | 243 kts | 124° |
| 2026-05-07 11:28 | 52.37653 | 28.20026 | 18887 ft | 243 kts | 124° |
| 2026-05-07 11:29 | 52.36845 | 28.22460 | 18885 ft | 243 kts | 124° |
| 2026-05-07 11:29 | 52.36037 | 28.24892 | 18885 ft | 243 kts | 124° |
| 2026-05-07 11:29 | 52.35229 | 28.27322 | 18885 ft | 243 kts | 125° |
| 2026-05-07 11:29 | 52.34430 | 28.29718 | 18886 ft | 243 kts | 124° |
| 2026-05-07 11:30 | 52.33622 | 28.32143 | 18886 ft | 243 kts | 124° |
| 2026-05-07 11:30 | 52.32814 | 28.34565 | 18886 ft | 243 kts | 124° |
| 2026-05-07 11:30 | 52.32006 | 28.36984 | 18889 ft | 242 kts | 124° |
| 2026-05-07 11:30 | 52.31199 | 28.39399 | 18890 ft | 242 kts | 124° |
| 2026-05-07 11:31 | 52.30390 | 28.41814 | 18885 ft | 242 kts | 124° |
| 2026-05-07 11:31 | 52.29582 | 28.44227 | 18891 ft | 242 kts | 124° |
| 2026-05-07 11:31 | 52.28775 | 28.46635 | 18891 ft | 242 kts | 124° |
| 2026-05-07 11:31 | 52.27966 | 28.49043 | 18892 ft | 242 kts | 124° |
| 2026-05-07 11:32 | 52.26344 | 28.53870 | 18892 ft | 242 kts | 124° |
| 2026-05-07 11:32 | 52.25531 | 28.56285 | 18891 ft | 243 kts | 124° |
| 2026-05-07 11:32 | 52.24717 | 28.58700 | 18894 ft | 243 kts | 124° |
| 2026-05-07 11:33 | 52.23916 | 28.61073 | 18897 ft | 243 kts | 124° |
| 2026-05-07 11:33 | 52.23091 | 28.63518 | 18894 ft | 242 kts | 124° |
| 2026-05-07 11:33 | 52.22276 | 28.65931 | 18893 ft | 242 kts | 124° |
| 2026-05-07 11:33 | 52.21465 | 28.68330 | 18895 ft | 242 kts | 124° |
| 2026-05-07 11:34 | 52.20649 | 28.70738 | 18894 ft | 242 kts | 124° |
| 2026-05-07 11:34 | 52.19836 | 28.73138 | 18894 ft | 242 kts | 124° |
| 2026-05-07 11:34 | 52.19025 | 28.75548 | 18892 ft | 242 kts | 122° |
| 2026-05-07 11:34 | 52.18538 | 28.78202 | 18899 ft | 249 kts | 101° |
| 2026-05-07 11:35 | 52.18603 | 28.81044 | 18898 ft | 254 kts | 81° |
| 2026-05-07 11:35 | 52.19044 | 28.83833 | 18900 ft | 254 kts | 78° |
| 2026-05-07 11:35 | 52.19487 | 28.86619 | 18902 ft | 254 kts | 78° |
| 2026-05-07 11:35 | 52.19926 | 28.89409 | 18902 ft | 254 kts | 78° |
| 2026-05-07 11:36 | 52.20368 | 28.92201 | 18902 ft | 254 kts | 78° |
| 2026-05-07 11:36 | 52.20809 | 28.94993 | 18906 ft | 254 kts | 78° |
| 2026-05-07 11:36 | 52.21249 | 28.97789 | 18902 ft | 254 kts | 78° |
| 2026-05-07 11:36 | 52.21688 | 29.00580 | 18906 ft | 254 kts | 78° |
| 2026-05-07 11:37 | 52.22126 | 29.03375 | 18913 ft | 254 kts | 78° |
| 2026-05-07 11:37 | 52.22564 | 29.06174 | 18910 ft | 255 kts | 78° |
| 2026-05-07 11:37 | 52.23002 | 29.08972 | 18913 ft | 255 kts | 78° |
| 2026-05-07 11:37 | 52.23440 | 29.11783 | 18915 ft | 255 kts | 78° |
| 2026-05-07 11:38 | 52.23876 | 29.14583 | 18913 ft | 255 kts | 78° |
| 2026-05-07 11:38 | 52.24315 | 29.17399 | 18912 ft | 255 kts | 78° |
| 2026-05-07 11:38 | 52.24746 | 29.20171 | 18913 ft | 255 kts | 78° |
| 2026-05-07 11:38 | 52.25180 | 29.22972 | 18913 ft | 255 kts | 78° |
| 2026-05-07 11:39 | 52.25614 | 29.25780 | 18913 ft | 255 kts | 78° |
| 2026-05-07 11:39 | 52.26048 | 29.28586 | 18913 ft | 255 kts | 78° |
| 2026-05-07 11:39 | 52.26481 | 29.31396 | 18920 ft | 255 kts | 78° |
| 2026-05-07 11:39 | 52.26913 | 29.34204 | 18920 ft | 255 kts | 78° |
| 2026-05-07 11:40 | 52.27201 | 29.36066 | 18919 ft | 255 kts | 78° |
| 2026-05-07 11:40 | 52.27631 | 29.38876 | 18920 ft | 255 kts | 78° |
| 2026-05-07 11:40 | 52.28062 | 29.41686 | 18920 ft | 255 kts | 78° |
| 2026-05-07 11:40 | 52.28491 | 29.44494 | 18914 ft | 254 kts | 78° |
| 2026-05-07 11:41 | 52.28919 | 29.47297 | 18913 ft | 255 kts | 78° |
| 2026-05-07 11:41 | 52.29347 | 29.50105 | 18916 ft | 255 kts | 78° |
| 2026-05-07 11:41 | 52.29778 | 29.52928 | 18848 ft | 258 kts | 78° |
| 2026-05-07 11:41 | 52.30216 | 29.55832 | 18597 ft | 268 kts | 78° |
| 2026-05-07 11:42 | 52.30669 | 29.58829 | 18322 ft | 275 kts | 78° |
| 2026-05-07 11:42 | 52.31127 | 29.61841 | 17945 ft | 270 kts | 78° |
| 2026-05-07 11:42 | 52.31576 | 29.64804 | 17542 ft | 267 kts | 78° |
| 2026-05-07 11:42 | 52.32016 | 29.67723 | 17171 ft | 263 kts | 79° |
| 2026-05-07 11:43 | 52.32449 | 29.70602 | 16811 ft | 260 kts | 79° |
| 2026-05-07 11:43 | 52.32877 | 29.73456 | 16460 ft | 257 kts | 79° |
| 2026-05-07 11:43 | 52.33300 | 29.76285 | 16121 ft | 255 kts | 79° |
| 2026-05-07 11:43 | 52.33722 | 29.79093 | 15780 ft | 253 kts | 79° |
| 2026-05-07 11:44 | 52.34140 | 29.81887 | 15442 ft | 252 kts | 79° |
| 2026-05-07 11:44 | 52.34553 | 29.84662 | 15111 ft | 251 kts | 79° |
| 2026-05-07 11:44 | 52.34965 | 29.87433 | 14773 ft | 250 kts | 79° |
| 2026-05-07 11:44 | 52.35377 | 29.90196 | 14439 ft | 249 kts | 79° |
| 2026-05-07 11:45 | 52.35785 | 29.92945 | 14111 ft | 248 kts | 79° |
| 2026-05-07 11:45 | 52.36190 | 29.95685 | 13783 ft | 248 kts | 79° |
| 2026-05-07 11:45 | 52.36594 | 29.98418 | 13430 ft | 246 kts | 80° |
| 2026-05-07 11:45 | 52.36991 | 30.01098 | 13101 ft | 244 kts | 80° |
| 2026-05-07 11:46 | 52.37387 | 30.03786 | 12776 ft | 242 kts | 80° |
| 2026-05-07 11:46 | 52.37778 | 30.06454 | 12456 ft | 241 kts | 80° |
| 2026-05-07 11:46 | 52.38168 | 30.09109 | 12148 ft | 240 kts | 80° |
| 2026-05-07 11:46 | 52.38557 | 30.11762 | 11828 ft | 239 kts | 80° |
| 2026-05-07 11:47 | 52.38944 | 30.14403 | 11505 ft | 237 kts | 80° |
| 2026-05-07 11:47 | 52.39326 | 30.17026 | 11194 ft | 236 kts | 80° |
| 2026-05-07 11:47 | 52.39707 | 30.19633 | 10884 ft | 234 kts | 80° |
| 2026-05-07 11:47 | 52.40085 | 30.22224 | 10576 ft | 233 kts | 80° |
| 2026-05-07 11:48 | 52.40460 | 30.24807 | 10263 ft | 233 kts | 80° |
| 2026-05-07 11:48 | 52.40834 | 30.27374 | 9958 ft | 232 kts | 80° |
| 2026-05-07 11:48 | 52.41312 | 30.29890 | 9634 ft | 232 kts | 70° |
| 2026-05-07 11:48 | 52.41948 | 30.32311 | 9323 ft | 230 kts | 70° |
| 2026-05-07 11:49 | 52.42566 | 30.34725 | 9013 ft | 230 kts | 71° |
| 2026-05-07 11:49 | 52.43180 | 30.37141 | 8710 ft | 229 kts | 70° |
| 2026-05-07 11:49 | 52.43794 | 30.39559 | 8404 ft | 229 kts | 70° |
| 2026-05-07 11:49 | 52.44409 | 30.41966 | 8103 ft | 229 kts | 70° |
| 2026-05-07 11:50 | 52.45021 | 30.44369 | 7812 ft | 229 kts | 70° |
| 2026-05-07 11:50 | 52.45633 | 30.46776 | 7505 ft | 229 kts | 70° |
| 2026-05-07 11:50 | 52.46242 | 30.49177 | 7211 ft | 228 kts | 70° |
| 2026-05-07 11:50 | 52.46852 | 30.51586 | 6908 ft | 228 kts | 70° |
| 2026-05-07 11:51 | 52.47460 | 30.53977 | 6609 ft | 227 kts | 70° |
| 2026-05-07 11:51 | 52.48062 | 30.56357 | 6307 ft | 225 kts | 70° |
| 2026-05-07 11:51 | 52.48663 | 30.58729 | 5998 ft | 225 kts | 71° |
| 2026-05-07 11:51 | 52.49257 | 30.61097 | 5703 ft | 225 kts | 71° |
| 2026-05-07 11:52 | 52.49851 | 30.63446 | 5407 ft | 219 kts | 70° |
| 2026-05-07 11:52 | 52.50431 | 30.65740 | 5122 ft | 216 kts | 71° |
| 2026-05-07 11:52 | 52.51000 | 30.68007 | 4855 ft | 213 kts | 72° |
| 2026-05-07 11:52 | 52.51600 | 30.70202 | 4617 ft | 210 kts | 61° |
| 2026-05-07 11:53 | 52.52682 | 30.71783 | 4351 ft | 212 kts | 24° |
| 2026-05-07 11:53 | 52.54056 | 30.72610 | 4087 ft | 209 kts | 15° |
| 2026-05-07 11:53 | 52.55437 | 30.73371 | 3811 ft | 209 kts | 18° |
| 2026-05-07 11:53 | 52.56788 | 30.74252 | 3539 ft | 209 kts | 27° |
| 2026-05-07 11:54 | 52.57803 | 30.75901 | 3262 ft | 206 kts | 66° |
| 2026-05-07 11:54 | 52.58054 | 30.78140 | 2985 ft | 195 kts | 102° |
| 2026-05-07 11:54 | 52.57675 | 30.80173 | 2734 ft | 181 kts | 118° |
| 2026-05-07 11:54 | 52.57220 | 30.82090 | 2488 ft | 179 kts | 116° |
| 2026-05-07 11:55 | 52.56785 | 30.83983 | 2285 ft | 174 kts | 116° |
| 2026-05-07 11:55 | 52.56368 | 30.85845 | 2075 ft | 172 kts | 115° |
| 2026-05-07 11:55 | 52.55939 | 30.87655 | 1877 ft | 166 kts | 119° |
| 2026-05-07 11:55 | 52.55565 | 30.89308 | 1692 ft | 143 kts | 117° |
| 2026-05-07 11:56 | 52.55223 | 30.90762 | 1526 ft | 132 kts | 117° |
| 2026-05-07 11:56 | 52.54902 | 30.92166 | 1371 ft | 127 kts | 118° |
| 2026-05-07 11:56 | 52.54592 | 30.93519 | 1224 ft | 127 kts | 117° |
| 2026-05-07 11:56 | 52.54269 | 30.94861 | 1089 ft | 124 kts | 118° |
| 2026-05-07 11:57 | 52.53979 | 30.96188 | 930 ft | 123 kts | 118° |
| 2026-05-07 11:57 | 52.53684 | 30.97452 | 787 ft | 114 kts | 120° |
| 2026-05-07 11:57 | 52.53413 | 30.98639 | 655 ft | 108 kts | 115° |
| 2026-05-07 11:57 | 52.53153 | 30.99758 | 491 ft | 104 kts | 118° |
| 2026-05-07 11:58 | 52.52904 | 31.00796 | 450 ft | 84 kts | 110° |
| 2026-05-07 11:58 | 52.52796 | 31.01256 | 448 ft | 6 kts | 146° |
| 2026-05-07 11:58 | 52.52772 | 31.01243 | 448 ft | 2 kts | 210° |
| 2026-05-07 11:58 | 52.52736 | 31.01220 | 449 ft | 13 kts | 201° |
| 2026-05-07 11:59 | 52.52645 | 31.01162 | 449 ft | 17 kts | 200° |
| 2026-05-07 11:59 | 52.52559 | 31.01152 | 449 ft | 8 kts | 168° |
| 2026-05-07 11:59 | 52.52520 | 31.01136 | 448 ft | 0 kts | 199° |